Terminal Aerodrome Forecast
Issued by NWS

Home | Current Version | Previous Version | Text Only | Print | Product List | Glossary On
Versions: 1 2 3 4 5 6 7 8 9 10 11 12
581
FTUS46 KPDT 242341
TAFPSC
TAF
KPSC 242341Z 2500/2524 11005KT P6SM SCT110 SCT150
     FM250400 VRB02KT P6SM BKN110
     FM251300 13005KT P6SM SCT070 BKN150
     FM251800 VRB03KT P6SM FEW070=

USA.gov is the U.S. government's official web portal to all federal, state and local government web resources and services.